createdAt,value
2023-01-09T00:01:21.973Z,82.71
2023-01-09T00:03:48.693Z,81.68
2023-01-09T00:06:15.368Z,80.67
2023-01-09T00:08:42.469Z,80.16
2023-01-09T00:11:09.165Z,79.78
2023-01-09T00:13:36.205Z,79.66
2023-01-09T00:16:05.003Z,78.53
2023-01-09T00:18:31.682Z,78.98
2023-01-09T00:21:04.081Z,79.27
2023-01-09T00:23:31.111Z,79.36
2023-01-09T00:26:18.680Z,78.92
2023-01-09T00:28:46.456Z,78.25
2023-01-09T00:31:13.736Z,77.77
2023-01-09T00:33:54.165Z,77.67
2023-01-09T00:36:21.010Z,77.05
2023-01-09T00:38:47.633Z,81.36
2023-01-09T00:41:18.409Z,81.53
2023-01-09T00:43:49.173Z,80.00
2023-01-09T00:46:18.603Z,79.51
2023-01-09T00:48:47.350Z,80.43
2023-01-09T00:51:14.927Z,81.70
2023-01-09T00:53:43.465Z,82.03
2023-01-09T00:56:15.344Z,83.29
2023-01-09T00:58:42.364Z,84.83
2023-01-09T01:01:09.133Z,83.50
2023-01-09T01:03:35.901Z,82.97
2023-01-09T01:06:02.484Z,84.65
2023-01-09T01:08:29.965Z,85.87
2023-01-09T01:10:56.651Z,86.10
2023-01-09T01:13:23.433Z,86.82
2023-01-09T01:15:50.035Z,88.67
2023-01-09T01:18:16.756Z,88.07
2023-01-09T01:20:45.146Z,87.96
2023-01-09T01:23:12.400Z,88.28
2023-01-09T01:25:41.349Z,88.09
2023-01-09T01:28:08.678Z,87.50
2023-01-09T01:30:40.819Z,90.20
2023-01-09T01:33:08.755Z,89.76
2023-01-09T01:35:35.696Z,88.53
2023-01-09T01:38:02.759Z,87.89
2023-01-09T01:40:30.023Z,86.96
2023-01-09T01:42:56.848Z,88.31
2023-01-09T01:45:29.060Z,87.76
2023-01-09T01:48:12.780Z,85.78
2023-01-09T01:51:03.863Z,86.78
2023-01-09T01:53:35.554Z,87.41
2023-01-09T01:56:08.328Z,87.88
2023-01-09T01:58:40.412Z,86.57
2023-01-09T02:01:07.816Z,86.00
2023-01-09T02:03:36.562Z,85.80
2023-01-09T02:06:04.289Z,86.83
2023-01-09T02:08:32.105Z,88.13
2023-01-09T02:10:58.954Z,88.26
2023-01-09T02:13:26.647Z,88.89
2023-01-09T02:16:06.609Z,90.17
2023-01-09T02:18:57.869Z,90.65
2023-01-09T02:21:27.248Z,91.62
2023-01-09T02:24:08.753Z,91.63
2023-01-09T02:27:07.559Z,90.71
2023-01-09T02:30:04.781Z,90.38
2023-01-09T02:32:54.549Z,89.93
2023-01-09T02:35:30.084Z,89.06
2023-01-09T02:38:05.678Z,88.43
2023-01-09T02:40:39.444Z,89.78
2023-01-09T02:43:08.293Z,90.03
2023-01-09T02:45:34.931Z,88.58
2023-01-09T02:48:01.728Z,89.36
2023-01-09T02:50:39.611Z,89.41
2023-01-09T02:53:17.888Z,90.15
2023-01-09T02:56:00.417Z,89.32
2023-01-09T02:58:48.544Z,88.87
2023-01-09T03:01:41.832Z,89.69
2023-01-09T03:04:16.631Z,89.01
2023-01-09T03:07:01.570Z,88.06
2023-01-09T03:09:33.177Z,89.75
2023-01-09T03:12:13.928Z,90.74
2023-01-09T03:14:55.576Z,90.65
2023-01-09T03:17:38.337Z,91.70
2023-01-09T03:20:09.029Z,91.61
2023-01-09T03:22:35.898Z,90.77
2023-01-09T03:25:02.580Z,90.11
2023-01-09T03:27:29.318Z,89.76
2023-01-09T03:29:55.918Z,88.37
2023-01-09T03:32:22.584Z,88.34
2023-01-09T03:34:49.335Z,88.88
2023-01-09T03:37:16.074Z,88.79
2023-01-09T03:39:42.663Z,87.60
2023-01-09T03:42:09.443Z,88.95
2023-01-09T03:44:36.033Z,90.72
2023-01-09T03:47:02.693Z,89.94
2023-01-09T03:49:29.330Z,90.01
2023-01-09T03:51:56.098Z,89.53
2023-01-09T03:54:22.759Z,89.22
2023-01-09T03:56:49.521Z,89.03
2023-01-09T03:59:16.115Z,88.58
2023-01-09T04:01:42.828Z,86.58
2023-01-09T04:04:09.603Z,87.38
2023-01-09T04:06:36.352Z,87.22
2023-01-09T04:09:03.048Z,87.46
2023-01-09T04:11:29.730Z,88.25
2023-01-09T04:13:56.301Z,87.97
2023-01-09T04:16:23.044Z,88.02
2023-01-09T04:18:49.699Z,87.45
2023-01-09T04:21:16.346Z,89.35
2023-01-09T04:23:42.961Z,89.39
2023-01-09T04:26:09.948Z,89.92
2023-01-09T04:28:36.707Z,92.69
2023-01-09T04:31:03.369Z,93.02
2023-01-09T04:33:29.986Z,92.89
2023-01-09T04:35:56.757Z,92.44
2023-01-09T04:38:23.348Z,92.30
2023-01-09T04:40:50.152Z,91.62
2023-01-09T04:43:16.741Z,91.37
2023-01-09T04:45:43.443Z,92.20
2023-01-09T04:48:10.438Z,92.55
2023-01-09T04:50:37.087Z,93.59
2023-01-09T04:53:04.004Z,92.78
2023-01-09T04:55:30.747Z,92.31
2023-01-09T04:57:57.349Z,91.36
2023-01-09T05:00:24.342Z,91.20
2023-01-09T05:02:51.094Z,90.01
2023-01-09T05:05:17.863Z,91.59
2023-01-09T05:07:44.456Z,92.34
2023-01-09T05:10:12.006Z,91.87
2023-01-09T05:12:39.890Z,90.69
2023-01-09T05:15:08.038Z,91.04
2023-01-09T05:17:34.881Z,90.39
2023-01-09T05:20:01.547Z,89.48
2023-01-09T05:22:28.251Z,89.33
2023-01-09T05:24:55.298Z,87.55
2023-01-09T05:27:21.969Z,87.09
2023-01-09T05:29:48.579Z,85.69
2023-01-09T05:32:15.233Z,84.90
2023-01-09T05:34:41.996Z,84.83
2023-01-09T05:37:08.637Z,85.19
2023-01-09T05:39:35.427Z,86.18
2023-01-09T05:42:02.021Z,85.98
2023-01-09T05:44:28.728Z,86.72
2023-01-09T05:46:55.799Z,87.09
2023-01-09T05:49:22.419Z,86.70
2023-01-09T05:51:49.085Z,86.99
2023-01-09T05:54:15.911Z,87.28
2023-01-09T05:56:42.539Z,87.57
2023-01-09T05:59:09.365Z,87.63
2023-01-09T06:01:36.236Z,87.97
2023-01-09T06:04:02.957Z,87.59
2023-01-09T06:06:29.570Z,87.78
2023-01-09T06:08:56.446Z,87.72
2023-01-09T06:11:23.037Z,87.07
2023-01-09T06:13:49.742Z,87.02
2023-01-09T06:16:16.495Z,87.21
2023-01-09T06:18:43.160Z,87.57
2023-01-09T06:21:09.759Z,87.48
2023-01-09T06:23:36.507Z,87.40
2023-01-09T06:26:03.280Z,87.40
2023-01-09T06:28:29.942Z,86.75
2023-01-09T06:30:56.591Z,86.92
2023-01-09T06:33:23.276Z,86.03
2023-01-09T06:35:49.858Z,85.57
2023-01-09T06:38:16.622Z,85.65
2023-01-09T06:40:43.221Z,86.05
2023-01-09T06:43:09.896Z,86.70
2023-01-09T06:45:36.870Z,87.22
2023-01-09T06:48:03.716Z,86.71
2023-01-09T06:50:30.311Z,86.09
2023-01-09T06:52:57.039Z,84.65
2023-01-09T06:55:23.619Z,83.27
2023-01-09T06:57:50.468Z,82.15
2023-01-09T07:00:17.882Z,82.75
2023-01-09T07:02:44.544Z,82.52
2023-01-09T07:05:11.164Z,82.21
2023-01-09T07:07:39.007Z,82.15
2023-01-09T07:10:06.444Z,81.88
2023-01-09T07:12:33.175Z,82.35
2023-01-09T07:14:59.810Z,82.18
2023-01-09T07:17:26.674Z,81.71
2023-01-09T07:19:53.288Z,81.95
2023-01-09T07:22:20.287Z,81.48
2023-01-09T07:24:47.020Z,81.29
2023-01-09T07:27:13.704Z,80.42
2023-01-09T07:29:40.320Z,80.72
2023-01-09T07:32:07.011Z,80.77
2023-01-09T07:34:33.912Z,80.61
2023-01-09T07:37:00.812Z,80.25
2023-01-09T07:39:27.518Z,81.48
2023-01-09T07:41:54.277Z,81.37
2023-01-09T07:44:21.003Z,82.51
2023-01-09T07:46:47.686Z,82.02
2023-01-09T07:49:14.267Z,82.64
2023-01-09T07:51:41.106Z,84.04
2023-01-09T07:54:07.693Z,84.30
2023-01-09T07:56:34.360Z,85.82
2023-01-09T07:59:01.348Z,85.46
2023-01-09T08:01:28.211Z,86.08
2023-01-09T08:03:54.880Z,85.67
2023-01-09T08:06:21.887Z,85.59
2023-01-09T08:08:48.615Z,83.25
2023-01-09T08:11:15.744Z,83.04
2023-01-09T08:13:42.509Z,83.21
2023-01-09T08:16:09.276Z,84.68
2023-01-09T08:18:36.072Z,84.56
2023-01-09T08:21:03.468Z,84.55
2023-01-09T08:23:30.105Z,84.83
2023-01-09T08:25:56.843Z,84.97
2023-01-09T08:28:23.508Z,83.81
2023-01-09T08:30:50.334Z,84.13
2023-01-09T08:33:16.932Z,84.73
2023-01-09T08:35:44.847Z,83.38
2023-01-09T08:38:11.674Z,83.57
2023-01-09T08:40:38.648Z,82.33
2023-01-09T08:43:05.307Z,81.57
2023-01-09T08:45:32.493Z,81.56
2023-01-09T08:47:59.273Z,81.03
2023-01-09T08:50:25.973Z,80.20
2023-01-09T08:52:52.554Z,79.96
2023-01-09T08:55:19.159Z,80.56
2023-01-09T08:57:53.327Z,79.98
2023-01-09T09:00:23.103Z,79.61
2023-01-09T09:03:00.694Z,80.42
2023-01-09T09:05:29.462Z,81.11
2023-01-09T09:07:56.644Z,79.65
2023-01-09T09:10:26.979Z,80.02
2023-01-09T09:12:55.824Z,79.72
2023-01-09T09:15:23.182Z,80.40
2023-01-09T09:17:55.200Z,80.01
2023-01-09T09:20:24.371Z,81.03
2023-01-09T09:22:51.478Z,81.59
2023-01-09T09:25:19.096Z,82.05
2023-01-09T09:27:45.966Z,83.06
2023-01-09T09:30:14.729Z,82.14
2023-01-09T09:32:41.889Z,80.36
2023-01-09T09:35:09.074Z,80.53
2023-01-09T09:37:36.022Z,80.54
2023-01-09T09:40:17.633Z,81.16
2023-01-09T09:42:51.021Z,78.85
2023-01-09T09:45:41.861Z,79.17
2023-01-09T09:48:20.313Z,77.47
2023-01-09T09:51:14.859Z,77.84
2023-01-09T09:53:59.419Z,77.73
2023-01-09T09:56:28.977Z,78.64
2023-01-09T09:59:07.830Z,78.61
2023-01-09T10:01:41.969Z,78.41
2023-01-09T10:04:15.263Z,76.92
2023-01-09T10:06:49.674Z,79.06
2023-01-09T10:09:25.721Z,79.29
2023-01-09T10:12:01.687Z,77.66
2023-01-09T10:14:28.702Z,75.29
2023-01-09T10:17:15.865Z,77.22
2023-01-09T10:19:51.669Z,76.66
2023-01-09T10:22:32.094Z,75.99
2023-01-09T10:25:15.128Z,76.60
2023-01-09T10:28:28.309Z,77.02
2023-01-09T10:31:09.678Z,77.40
2023-01-09T10:34:02.729Z,76.61
2023-01-09T10:37:00.037Z,77.12
2023-01-09T10:39:57.385Z,78.07
2023-01-09T10:42:50.793Z,77.98
2023-01-09T10:45:30.164Z,77.43
2023-01-09T10:48:06.262Z,77.87
2023-01-09T10:50:40.319Z,79.06
2023-01-09T10:53:40.369Z,79.41
2023-01-09T10:56:23.145Z,79.33
2023-01-09T10:58:51.571Z,79.64
2023-01-09T11:01:38.738Z,79.66
2023-01-09T11:04:34.670Z,81.27
2023-01-09T11:07:32.929Z,80.64
2023-01-09T11:10:07.142Z,80.33
2023-01-09T11:12:35.555Z,79.73
2023-01-09T11:15:17.412Z,79.40
2023-01-09T11:17:45.316Z,78.33
2023-01-09T11:20:28.040Z,78.58
2023-01-09T11:22:57.443Z,79.75
2023-01-09T11:25:27.409Z,78.90
2023-01-09T11:28:03.209Z,78.39
2023-01-09T11:30:31.879Z,78.02
2023-01-09T11:32:59.062Z,77.50
2023-01-09T11:35:34.633Z,76.52
2023-01-09T11:38:15.120Z,76.71
2023-01-09T11:40:54.913Z,76.31
2023-01-09T11:43:35.347Z,76.30
2023-01-09T11:46:05.085Z,78.12
2023-01-09T11:48:31.635Z,77.73
2023-01-09T11:51:00.401Z,78.16
2023-01-09T11:53:28.158Z,77.34
2023-01-09T11:56:00.845Z,76.76
2023-01-09T11:58:32.335Z,75.18
2023-01-09T12:01:15.109Z,75.43
2023-01-09T12:04:03.162Z,76.52
2023-01-09T12:07:13.991Z,77.16
2023-01-09T12:09:55.447Z,76.60
2023-01-09T12:12:49.273Z,77.00
2023-01-09T12:15:29.528Z,76.44
2023-01-09T12:18:33.083Z,76.69
2023-01-09T12:20:59.743Z,78.92
2023-01-09T12:23:55.148Z,78.22
2023-01-09T12:26:32.300Z,77.79
2023-01-09T12:29:29.731Z,77.87
2023-01-09T12:31:56.392Z,77.20
2023-01-09T12:34:37.850Z,76.78
2023-01-09T12:37:45.051Z,75.88
2023-01-09T12:40:11.696Z,76.52
2023-01-09T12:42:56.443Z,76.11
2023-01-09T12:45:33.185Z,75.78
2023-01-09T12:48:08.332Z,77.28
2023-01-09T12:50:44.100Z,77.35
2023-01-09T12:53:35.639Z,76.51
2023-01-09T12:56:05.457Z,77.41
2023-01-09T12:58:44.500Z,76.69
2023-01-09T13:01:17.418Z,76.63
2023-01-09T13:04:08.603Z,76.56
2023-01-09T13:06:40.403Z,77.69
2023-01-09T13:09:33.020Z,77.61
2023-01-09T13:12:04.442Z,77.73
2023-01-09T13:14:49.108Z,76.11
2023-01-09T13:17:24.927Z,76.00
2023-01-09T13:19:56.484Z,76.01
2023-01-09T13:22:27.356Z,75.59
2023-01-09T13:25:03.172Z,74.83
2023-01-09T13:27:35.132Z,75.62
2023-01-09T13:30:11.184Z,74.44
2023-01-09T13:32:50.152Z,74.86
2023-01-09T13:35:16.900Z,75.04
2023-01-09T13:37:51.069Z,75.15
2023-01-09T13:40:20.600Z,74.17
2023-01-09T13:42:57.827Z,73.59
2023-01-09T13:45:28.174Z,74.44
2023-01-09T13:48:26.259Z,74.24
2023-01-09T13:50:53.206Z,74.56
2023-01-09T13:53:19.808Z,75.04
2023-01-09T13:55:58.986Z,75.11
2023-01-09T13:58:38.080Z,74.71
2023-01-09T14:01:24.838Z,74.27
2023-01-09T14:04:09.804Z,75.79
2023-01-09T14:06:36.982Z,75.75
2023-01-09T14:09:22.534Z,76.17
2023-01-09T14:12:03.312Z,77.08
2023-01-09T14:14:32.757Z,77.09
2023-01-09T14:17:00.480Z,78.68
2023-01-09T14:19:39.719Z,78.79
2023-01-09T14:22:08.128Z,78.03
2023-01-09T14:24:44.930Z,78.10
2023-01-09T14:27:49.233Z,78.78
2023-01-09T14:30:27.918Z,79.46
2023-01-09T14:33:19.220Z,79.79
2023-01-09T14:35:52.316Z,78.60
2023-01-09T14:38:32.027Z,77.75
2023-01-09T14:41:26.894Z,77.57
2023-01-09T14:44:13.397Z,78.07
2023-01-09T14:46:40.445Z,77.50
2023-01-09T14:49:30.307Z,77.19
2023-01-09T14:52:00.590Z,77.88
2023-01-09T14:54:37.452Z,77.23
2023-01-09T14:57:23.492Z,78.69
2023-01-09T15:00:17.293Z,77.82
2023-01-09T15:02:46.966Z,77.14
2023-01-09T15:05:21.409Z,76.88
2023-01-09T15:08:04.439Z,77.44
2023-01-09T15:10:38.152Z,77.78
2023-01-09T15:13:08.237Z,78.04
2023-01-09T15:15:35.649Z,78.10
2023-01-09T15:18:08.338Z,78.15
2023-01-09T15:20:35.273Z,78.59
2023-01-09T15:23:02.120Z,78.13
2023-01-09T15:25:38.802Z,78.43
2023-01-09T15:28:31.368Z,77.33
2023-01-09T15:31:03.153Z,76.85
2023-01-09T15:33:31.262Z,76.56
2023-01-09T15:35:58.430Z,77.12
2023-01-09T15:38:26.443Z,77.43
2023-01-09T15:41:23.811Z,78.14
2023-01-09T15:43:50.668Z,77.64
2023-01-09T15:46:17.497Z,76.88
2023-01-09T15:48:44.440Z,78.40
2023-01-09T15:51:15.687Z,78.02
2023-01-09T15:53:45.413Z,78.26
2023-01-09T15:56:12.033Z,78.73
2023-01-09T15:58:44.421Z,78.35
2023-01-09T16:01:30.973Z,77.44
2023-01-09T16:04:06.768Z,77.44
2023-01-09T16:06:50.040Z,77.49
2023-01-09T16:09:25.973Z,77.76
2023-01-09T16:11:56.707Z,77.91
2023-01-09T16:14:41.281Z,79.31
2023-01-09T16:17:15.560Z,80.55
2023-01-09T16:19:56.751Z,81.04
2023-01-09T16:22:42.043Z,81.27
2023-01-09T16:25:29.395Z,83.10
2023-01-09T16:28:09.561Z,83.74
2023-01-09T16:30:36.654Z,83.44
2023-01-09T16:33:03.496Z,82.37
2023-01-09T16:35:30.454Z,82.40
2023-01-09T16:37:57.317Z,82.34
2023-01-09T16:40:26.371Z,82.44
2023-01-09T16:42:59.088Z,81.48
2023-01-09T16:45:29.644Z,82.08
2023-01-09T16:47:56.615Z,80.05
2023-01-09T16:50:23.955Z,81.03
2023-01-09T16:52:51.305Z,82.41
2023-01-09T16:55:18.359Z,83.86
2023-01-09T16:57:45.283Z,86.05
2023-01-09T17:00:20.279Z,85.80
2023-01-09T17:02:47.128Z,85.85
2023-01-09T17:05:13.927Z,85.65
2023-01-09T17:07:40.705Z,85.42
2023-01-09T17:10:18.709Z,85.59
2023-01-09T17:12:45.409Z,85.04
2023-01-09T17:15:12.018Z,84.77
2023-01-09T17:17:38.868Z,84.59
2023-01-09T17:20:19.640Z,83.52
2023-01-09T17:22:46.374Z,83.98
2023-01-09T17:25:16.481Z,84.56
2023-01-09T17:27:43.239Z,84.75
2023-01-09T17:30:18.874Z,84.25
2023-01-09T17:32:46.534Z,84.88
2023-01-09T17:35:13.803Z,84.16
2023-01-09T17:37:41.210Z,84.10
2023-01-09T17:40:19.950Z,84.15
2023-01-09T17:42:46.648Z,83.54
2023-01-09T17:45:13.661Z,83.57
2023-01-09T17:47:40.496Z,82.30
2023-01-09T17:50:16.213Z,82.58
2023-01-09T17:52:43.003Z,82.89
2023-01-09T17:55:09.789Z,83.18
2023-01-09T17:57:37.581Z,82.67
2023-01-09T18:00:06.036Z,83.36
2023-01-09T18:02:33.518Z,83.99
2023-01-09T18:05:00.162Z,83.58
2023-01-09T18:07:26.867Z,83.16
2023-01-09T18:09:53.498Z,83.19
2023-01-09T18:12:20.275Z,83.17
2023-01-09T18:14:47.971Z,83.71
2023-01-09T18:17:14.758Z,83.26
2023-01-09T18:19:41.473Z,83.18
2023-01-09T18:22:09.112Z,83.88
2023-01-09T18:24:36.868Z,83.67
2023-01-09T18:27:04.482Z,83.69
2023-01-09T18:29:31.221Z,84.29
2023-01-09T18:31:57.983Z,84.84
2023-01-09T18:34:24.864Z,84.83
2023-01-09T18:36:52.000Z,84.69
2023-01-09T18:39:18.623Z,84.20
2023-01-09T18:41:45.420Z,83.59
2023-01-09T18:44:12.269Z,84.94
2023-01-09T18:46:39.607Z,84.81
2023-01-09T18:49:06.429Z,83.84
2023-01-09T18:51:34.978Z,83.39
2023-01-09T18:54:01.625Z,82.86
2023-01-09T18:56:28.511Z,83.09
2023-01-09T18:58:59.086Z,82.86
2023-01-09T19:01:30.120Z,83.20
2023-01-09T19:03:58.713Z,82.64
2023-01-09T19:06:26.534Z,83.17
2023-01-09T19:08:53.348Z,82.73
2023-01-09T19:11:20.086Z,81.41
2023-01-09T19:13:47.039Z,81.35
2023-01-09T19:16:13.753Z,81.30
2023-01-09T19:18:42.668Z,81.27
2023-01-09T19:21:18.958Z,81.07
2023-01-09T19:23:50.368Z,81.63
2023-01-09T19:26:24.155Z,81.63
2023-01-09T19:28:51.614Z,82.10
2023-01-09T19:31:18.643Z,82.62
2023-01-09T19:33:48.223Z,82.91
2023-01-09T19:36:15.241Z,82.87
2023-01-09T19:38:42.223Z,82.45
2023-01-09T19:41:11.546Z,82.41
2023-01-09T19:43:40.547Z,82.48
2023-01-09T19:46:14.177Z,83.15
2023-01-09T19:48:41.293Z,82.86
2023-01-09T19:51:11.234Z,82.83
2023-01-09T19:53:38.844Z,83.12
2023-01-09T19:56:16.565Z,82.91
2023-01-09T19:58:50.719Z,84.22
2023-01-09T20:01:21.156Z,84.91
2023-01-09T20:03:48.579Z,85.26
2023-01-09T20:06:17.646Z,85.52
2023-01-09T20:08:48.505Z,85.77
2023-01-09T20:11:16.055Z,85.95
2023-01-09T20:13:43.520Z,86.75
2023-01-09T20:16:16.173Z,87.04
2023-01-09T20:18:43.250Z,86.02
2023-01-09T20:21:12.294Z,87.15
2023-01-09T20:23:39.456Z,87.16
2023-01-09T20:26:06.040Z,86.55
2023-01-09T20:28:32.952Z,84.84
2023-01-09T20:31:00.836Z,85.65
2023-01-09T20:33:27.653Z,85.55
2023-01-09T20:35:54.328Z,85.37
2023-01-09T20:38:20.990Z,84.84
2023-01-09T20:40:47.597Z,85.34
2023-01-09T20:43:14.502Z,85.31
2023-01-09T20:45:41.436Z,84.79
2023-01-09T20:48:08.327Z,84.38
2023-01-09T20:50:35.183Z,84.11
2023-01-09T20:53:03.384Z,83.91
2023-01-09T20:55:33.370Z,84.28
2023-01-09T20:58:00.037Z,86.74
2023-01-09T21:00:26.657Z,87.72
2023-01-09T21:02:54.179Z,86.99
2023-01-09T21:05:20.926Z,85.52
2023-01-09T21:07:47.944Z,85.67
2023-01-09T21:10:14.531Z,85.85
2023-01-09T21:12:41.171Z,85.53
2023-01-09T21:15:09.147Z,85.86
2023-01-09T21:17:38.664Z,85.28
2023-01-09T21:20:08.191Z,85.64
2023-01-09T21:22:36.148Z,86.03
2023-01-09T21:25:04.786Z,86.00
2023-01-09T21:27:32.068Z,86.65
2023-01-09T21:29:58.702Z,85.68
2023-01-09T21:32:25.482Z,85.55
2023-01-09T21:34:52.188Z,85.62
2023-01-09T21:37:18.970Z,85.54
2023-01-09T21:39:45.613Z,85.11
2023-01-09T21:42:12.551Z,84.94
2023-01-09T21:44:39.316Z,84.74
2023-01-09T21:47:06.027Z,83.77
2023-01-09T21:49:32.704Z,82.59
2023-01-09T21:51:59.394Z,83.27
2023-01-09T21:54:26.121Z,83.32
2023-01-09T21:56:53.505Z,83.69
2023-01-09T21:59:20.103Z,83.58
2023-01-09T22:01:51.111Z,83.42
2023-01-09T22:04:20.625Z,82.43
2023-01-09T22:06:47.325Z,83.33
2023-01-09T22:09:14.867Z,82.83
2023-01-09T22:11:42.585Z,83.10
2023-01-09T22:14:14.267Z,83.77
2023-01-09T22:16:42.299Z,83.92
2023-01-09T22:19:09.288Z,83.99
2023-01-09T22:21:35.984Z,84.39
2023-01-09T22:24:02.630Z,85.00
2023-01-09T22:26:29.950Z,84.87
2023-01-09T22:28:56.897Z,84.55
2023-01-09T22:31:24.692Z,82.86
2023-01-09T22:33:56.463Z,83.88
2023-01-09T22:36:24.352Z,84.67
2023-01-09T22:38:54.248Z,84.10
2023-01-09T22:41:21.808Z,83.75
2023-01-09T22:43:48.555Z,84.06
2023-01-09T22:46:15.275Z,84.58
2023-01-09T22:48:41.993Z,85.34
2023-01-09T22:51:14.325Z,84.44
2023-01-09T22:53:41.581Z,84.31
2023-01-09T22:56:12.696Z,84.30
2023-01-09T22:58:39.836Z,83.49
2023-01-09T23:01:06.829Z,83.47
2023-01-09T23:03:33.530Z,83.66
2023-01-09T23:06:11.477Z,85.88
2023-01-09T23:08:38.954Z,85.30
2023-01-09T23:11:08.504Z,84.27
2023-01-09T23:13:35.554Z,84.00
2023-01-09T23:16:02.334Z,85.89
2023-01-09T23:18:29.072Z,86.42
2023-01-09T23:20:58.613Z,86.81
2023-01-09T23:23:26.891Z,86.61
2023-01-09T23:25:56.112Z,86.85
2023-01-09T23:28:24.356Z,87.13
2023-01-09T23:30:51.049Z,87.09
2023-01-09T23:33:17.735Z,87.50
2023-01-09T23:35:44.421Z,87.14
2023-01-09T23:38:11.542Z,86.94
2023-01-09T23:40:39.527Z,86.63
2023-01-09T23:43:06.215Z,86.99
2023-01-09T23:45:33.833Z,86.57
2023-01-09T23:48:00.611Z,86.24
2023-01-09T23:50:27.222Z,86.07
2023-01-09T23:52:54.043Z,86.32
2023-01-09T23:55:20.734Z,86.23
2023-01-09T23:57:47.491Z,85.89
